Time;durP1;ratioP1;P1;durP2;ratioP2;P2;SDS_P1;SDS_P2;PMS_P1;PMS_P2;Temp;Humidity;BMP_temperature;BMP_pressure;BME280_temperature;BME280_humidity;BME280_pressure;Samples;Min_cycle;Max_cycle;Signal;HPM_P1;HPM_P2
2022/03/13 00:09:51;;;;;;;182.70;70.60;;;;;;;-2.11;41.46;99645.98;432709;1271;111021;-40
2022/03/13 00:30:08;;;;;;;233.90;81.30;;;;;;;-2.23;41.89;99650.19;432555;1272;97921;-41
2022/03/13 00:40:16;;;;;;;206.80;74.30;;;;;;;-2.29;42.19;99652.31;432514;1271;110072;-42
2022/03/13 00:50:22;;;;;;;199.90;75.20;;;;;;;-2.35;42.48;99650.88;432407;1272;107644;-40
2022/03/13 01:00:33;;;;;;;183.90;68.50;;;;;;;-2.45;42.78;99649.38;432626;1272;96689;-41
2022/03/13 01:10:42;;;;;;;196.80;73.10;;;;;;;-2.55;42.74;99644.17;432491;1272;110245;-40
2022/03/13 01:20:50;;;;;;;225.90;78.20;;;;;;;-2.66;42.96;99631.20;432518;1272;108874;-42
2022/03/13 01:30:59;;;;;;;208.50;79.80;;;;;;;-2.70;43.26;99622.61;432685;1272;96652;-43
2022/03/13 01:41:05;;;;;;;;;;;;;;;-2.74;43.44;99614.44;432466;1272;111293;-43
2022/03/13 01:51:12;;;;;;;275.90;96.70;;;;;;;-2.80;43.90;99611.63;432489;1271;108839;-41
2022/03/13 02:01:17;;;;;;;235.30;83.10;;;;;;;-2.82;44.13;99607.34;432040;1272;97765;-41
2022/03/13 02:31:50;;;;;;;252.80;87.20;;;;;;;-2.76;44.48;99597.03;433273;1260;110962;-40
2022/03/13 02:41:57;;;;;;;206.10;76.20;;;;;;;-2.89;44.66;99602.48;432487;1271;108785;-39
2022/03/13 02:52:05;;;;;;;206.60;74.60;;;;;;;-2.99;44.81;99606.05;432463;1271;97945;-40
2022/03/13 03:02:13;;;;;;;200.30;74.00;;;;;;;-3.04;45.12;99605.92;432597;1271;110772;-40
2022/03/13 03:12:20;;;;;;;207.20;72.70;;;;;;;-3.17;45.42;99603.83;432471;1271;108925;-42
2022/03/13 03:22:28;;;;;;;225.40;80.60;;;;;;;-3.40;45.75;99595.81;432594;1271;96717;-40
2022/03/13 03:32:35;;;;;;;232.60;85.50;;;;;;;-3.60;45.99;99591.48;432505;1271;111128;-42
2022/03/13 03:42:44;;;;;;;211.80;83.20;;;;;;;-3.80;46.74;99587.41;432365;1271;108788;-40
2022/03/13 04:02:58;;;;;;;246.00;84.60;;;;;;;-4.07;47.31;99586.55;432591;1271;111234;-41
2022/03/13 04:13:06;;;;;;;228.40;85.20;;;;;;;-4.03;47.80;99584.55;432603;1271;109810;-40
2022/03/13 04:23:13;;;;;;;207.40;80.00;;;;;;;-4.08;47.66;99585.96;432493;1271;97898;-41
2022/03/13 04:33:19;;;;;;;196.70;78.40;;;;;;;-4.11;48.21;99582.55;432317;1271;111215;-41
2022/03/13 04:43:27;;;;;;;179.20;68.60;;;;;;;-4.16;48.38;99584.30;432382;1271;108936;-41
2022/03/13 04:53:34;;;;;;;185.20;71.00;;;;;;;-4.12;48.53;99590.70;432616;1271;97957;-40
2022/03/13 05:03:41;;;;;;;201.70;73.90;;;;;;;-4.13;48.76;99593.52;432603;1271;110266;-42
2022/03/13 05:13:47;;;;;;;193.50;71.10;;;;;;;-4.19;48.57;99592.23;432547;1271;105991;-40
2022/03/13 05:34:01;;;;;;;191.30;72.90;;;;;;;-4.19;49.36;99585.27;432384;1271;108714;-41
2022/03/13 05:54:15;;;;;;;208.80;76.10;;;;;;;-3.03;49.60;99608.45;432456;1271;111136;-43
2022/03/13 06:04:22;;;;;;;217.60;84.30;;;;;;;-2.45;49.35;99611.07;432560;1271;108322;-42
2022/03/13 06:14:30;;;;;;;223.80;86.30;;;;;;;-0.95;49.02;99611.16;432510;1271;97880;-41
2022/03/13 06:24:37;;;;;;;179.90;73.90;;;;;;;0.72;48.55;99617.75;432524;1271;111732;-40
2022/03/13 06:44:51;;;;;;;133.60;59.40;;;;;;;3.49;46.64;99614.16;432405;1271;109670;-42
2022/03/13 06:54:59;;;;;;;135.50;54.60;;;;;;;4.77;45.60;99617.32;432323;1271;97916;-41
2022/03/13 07:05:04;;;;;;;97.60;42.30;;;;;;;5.66;44.51;99622.75;432571;1271;110496;-41
2022/03/13 07:15:13;;;;;;;123.70;52.40;;;;;;;5.83;43.35;99625.70;432506;1271;98012;-41
2022/03/13 07:25:22;;;;;;;105.30;46.20;;;;;;;5.83;42.46;99627.80;432641;1271;97942;-43
2022/03/13 07:35:29;;;;;;;89.60;39.10;;;;;;;5.72;41.49;99622.98;432532;1271;97907;-40
2022/03/13 07:45:36;;;;;;;66.30;30.20;;;;;;;5.90;41.03;99627.45;432538;1271;111096;-41
2022/03/13 07:55:43;;;;;;;57.00;25.80;;;;;;;5.94;39.81;99622.52;432539;1271;109061;-41
2022/03/13 08:05:50;;;;;;;45.80;22.80;;;;;;;6.47;38.62;99614.27;432496;1271;108899;-41
2022/03/13 08:15:58;;;;;;;48.00;22.70;;;;;;;6.60;37.03;99627.69;432686;1271;97488;-40
2022/03/13 08:26:05;;;;;;;38.60;18.80;;;;;;;6.69;36.69;99628.50;432478;1271;111125;-41
2022/03/13 08:36:13;;;;;;;33.40;16.20;;;;;;;6.95;36.24;99623.70;432519;1271;108730;-40
2022/03/13 08:46:19;;;;;;;34.70;16.40;;;;;;;7.31;35.77;99618.45;432552;1271;108930;-41
2022/03/13 08:56:27;;;;;;;21.10;11.90;;;;;;;7.55;35.00;99615.73;432394;1271;98006;-45
2022/03/13 09:06:36;;;;;;;23.10;10.90;;;;;;;7.58;32.98;99603.61;428554;1271;5393394;-44
2022/03/13 09:16:45;;;;;;;22.20;10.80;;;;;;;7.92;33.19;99593.36;432506;1270;108811;-43
2022/03/13 09:26:52;;;;;;;21.00;10.50;;;;;;;8.23;32.19;99598.76;432591;1271;97514;-42
2022/03/13 09:36:58;;;;;;;24.60;10.80;;;;;;;8.29;31.31;99598.61;432587;1271;111099;-41
2022/03/13 09:57:12;;;;;;;18.40;9.70;;;;;;;8.72;30.86;99586.52;432456;1270;109007;-40
2022/03/13 10:07:18;;;;;;;17.60;8.90;;;;;;;8.74;29.29;99582.88;432513;1270;97827;-41
2022/03/13 10:37:39;;;;;;;19.40;9.90;;;;;;;9.07;29.05;99571.99;432674;1270;108648;-41
2022/03/13 10:47:46;;;;;;;19.40;10.20;;;;;;;9.21;28.15;99568.35;432609;1270;97903;-43
2022/03/13 10:57:55;;;;;;;17.00;8.90;;;;;;;9.50;27.86;99557.48;432562;1270;98576;-40
2022/03/13 11:18:10;;;;;;;18.10;9.70;;;;;;;9.37;25.50;99551.22;432605;1270;108714;-41
2022/03/13 11:28:19;;;;;;;14.10;7.90;;;;;;;9.37;24.50;99549.12;432662;1270;97913;-45
2022/03/13 11:38:27;;;;;;;13.60;6.80;;;;;;;9.48;23.58;99546.27;432667;1270;97512;-43
2022/03/13 11:48:39;;;;;;;19.10;10.10;;;;;;;9.56;22.83;99538.89;432424;1270;111047;-43
2022/03/13 11:58:48;;;;;;;17.50;9.50;;;;;;;9.63;23.53;99529.64;432647;1270;108947;-41
2022/03/13 12:29:23;;;;;;;15.70;8.90;;;;;;;9.74;23.18;99490.65;432453;1270;109044;-41
2022/03/13 12:39:31;;;;;;;16.80;9.80;;;;;;;9.73;22.41;99485.44;432598;1270;97935;-40
2022/03/13 12:59:48;;;;;;;17.00;8.70;;;;;;;9.77;22.55;99472.20;432560;1270;108725;-43
2022/03/13 13:09:55;;;;;;;16.90;9.20;;;;;;;9.88;23.21;99476.85;432522;1270;97952;-42
2022/03/13 13:20:04;;;;;;;17.20;9.70;;;;;;;9.91;23.11;99472.11;432493;1270;108590;-41
2022/03/13 13:30:32;;;;;;;16.00;8.50;;;;;;;9.93;23.10;99473.89;432427;1270;97916;-41
2022/03/13 13:40:42;;;;;;;20.70;9.80;;;;;;;9.92;22.96;99474.30;432302;1270;110948;-41
2022/03/13 13:50:49;;;;;;;19.00;9.30;;;;;;;9.96;22.88;99479.58;432281;1270;108662;-44
2022/03/13 14:00:57;;;;;;;16.80;9.90;;;;;;;10.00;23.09;99479.38;432600;1270;97990;-43
2022/03/13 14:11:04;;;;;;;21.10;10.80;;;;;;;10.05;23.52;99477.73;432726;1270;110003;-42
2022/03/13 14:21:11;;;;;;;18.10;9.80;;;;;;;9.96;23.33;99477.50;432593;1270;109305;-41
2022/03/13 14:31:19;;;;;;;28.40;11.30;;;;;;;10.00;23.26;99479.70;432480;1270;96678;-42
2022/03/13 14:41:26;;;;;;;13.60;7.30;;;;;;;9.95;23.15;99484.02;432648;1270;111083;-41
2022/03/13 14:51:34;;;;;;;20.90;9.00;;;;;;;9.81;22.89;99481.33;432570;1270;108916;-43
2022/03/13 15:01:41;;;;;;;17.20;8.90;;;;;;;9.69;22.42;99482.71;432584;1270;96677;-40
2022/03/13 15:11:49;;;;;;;17.60;9.60;;;;;;;9.54;22.44;99485.06;432422;1270;111091;-41
2022/03/13 15:21:56;;;;;;;21.30;10.40;;;;;;;9.37;22.69;99489.14;432620;1270;109037;-44
2022/03/13 15:32:04;;;;;;;16.70;10.30;;;;;;;9.15;22.41;99493.44;432541;1270;97028;-41
2022/03/13 15:42:12;;;;;;;15.90;9.80;;;;;;;8.95;23.28;99504.13;432395;1269;111122;-41
2022/03/13 15:52:21;;;;;;;19.10;11.90;;;;;;;8.76;23.84;99511.98;432615;1270;108707;-41
2022/03/13 16:02:28;;;;;;;24.70;13.00;;;;;;;8.53;23.80;99513.40;432386;1270;97927;-43
2022/03/13 16:12:36;;;;;;;34.80;17.30;;;;;;;8.26;24.37;99519.86;432605;1270;97906;-41
2022/03/13 16:22:42;;;;;;;40.90;17.80;;;;;;;7.95;24.75;99522.63;432450;1270;111254;-42
2022/03/13 16:32:50;;;;;;;64.20;27.30;;;;;;;7.67;25.34;99524.00;432641;1271;109241;-43
2022/03/13 16:42:56;;;;;;;47.80;23.10;;;;;;;7.33;26.07;99528.65;432416;1273;107447;-42
2022/03/13 16:53:02;;;;;;;35.90;19.30;;;;;;;6.98;26.70;99534.70;432404;1273;96709;-40
2022/03/13 17:03:10;;;;;;;35.60;17.60;;;;;;;6.63;27.20;99543.71;432705;1271;111015;-40
2022/03/13 17:13:19;;;;;;;39.70;21.80;;;;;;;6.33;27.79;99549.04;432669;1273;109107;-43
2022/03/13 17:23:26;;;;;;;40.20;22.50;;;;;;;6.04;28.32;99553.55;432560;1271;108861;-39
2022/03/13 17:33:32;;;;;;;43.70;23.60;;;;;;;5.71;28.81;99565.52;432511;1273;97919;-43
2022/03/13 17:43:40;;;;;;;55.40;29.30;;;;;;;5.45;29.31;99571.45;432743;1271;111056;-41
2022/03/13 17:53:47;;;;;;;71.00;33.40;;;;;;;5.25;29.68;99575.44;432442;1271;108978;-43
2022/03/13 18:03:54;;;;;;;58.60;29.10;;;;;;;5.03;30.34;99580.05;432270;1273;108815;-41
2022/03/13 18:14:02;;;;;;;54.20;27.20;;;;;;;4.70;30.71;99579.89;432590;1272;97068;-42
2022/03/13 18:24:10;;;;;;;66.40;34.90;;;;;;;4.37;31.12;99581.27;432468;1273;111286;-41
2022/03/13 18:34:17;;;;;;;52.00;27.10;;;;;;;4.15;31.54;99588.96;432483;1273;108830;-40
2022/03/13 18:44:25;;;;;;;67.90;29.90;;;;;;;4.15;31.74;99593.21;432726;1271;109424;-41
2022/03/13 18:54:32;;;;;;;86.40;33.80;;;;;;;4.12;31.98;99599.30;432490;1271;96597;-41
2022/03/13 19:04:40;;;;;;;82.50;37.50;;;;;;;4.04;32.30;99606.80;432601;1271;110117;-41
2022/03/13 19:24:52;;;;;;;85.90;35.50;;;;;;;3.83;32.81;99608.45;432533;1271;108916;-42
2022/03/13 19:34:59;;;;;;;119.50;44.60;;;;;;;3.68;32.95;99610.20;432543;1271;97551;-41
2022/03/13 19:45:10;;;;;;;120.70;44.20;;;;;;;3.53;33.54;99615.80;432678;1271;111429;-44
2022/03/13 19:55:16;;;;;;;;;;;;;;;3.37;33.79;99618.77;432486;1271;107718;-40
2022/03/13 20:25:36;;;;;;;69.20;29.50;;;;;;;2.79;34.88;99631.82;432524;1271;96696;-41
2022/03/13 20:35:44;;;;;;;80.10;31.10;;;;;;;2.67;36.13;99633.78;432667;1271;111125;-41
2022/03/13 20:55:57;;;;;;;79.30;35.50;;;;;;;2.36;38.92;99636.52;432511;1273;97552;-41
2022/03/13 21:06:05;;;;;;;80.20;34.50;;;;;;;2.17;39.65;99651.64;428515;1273;5389078;-42
2022/03/13 21:16:13;;;;;;;67.10;31.30;;;;;;;2.00;40.46;99661.01;432440;1273;109262;-42
2022/03/13 21:26:19;;;;;;;77.80;33.90;;;;;;;1.80;41.01;99657.85;432661;1271;108950;-41
2022/03/13 21:36:27;;;;;;;98.70;37.70;;;;;;;1.62;42.17;99650.77;432497;1271;96646;-40
2022/03/13 21:46:34;;;;;;;100.70;38.70;;;;;;;1.47;42.42;99652.73;432591;1273;111411;-42
2022/03/13 22:06:48;;;;;;;102.20;37.70;;;;;;;1.17;43.40;99644.96;432447;1271;108805;-41
2022/03/13 22:16:55;;;;;;;95.40;37.00;;;;;;;1.05;44.13;99647.34;432481;1271;98013;-43
2022/03/13 22:27:02;;;;;;;85.20;36.90;;;;;;;0.98;44.78;99646.83;432510;1271;110382;-41
2022/03/13 22:37:09;;;;;;;90.40;34.80;;;;;;;0.85;45.33;99651.29;432535;1271;109213;-40
2022/03/13 22:47:18;;;;;;;95.90;35.20;;;;;;;0.71;45.65;99648.48;432658;1270;108810;-41
2022/03/13 22:57:25;;;;;;;92.60;36.20;;;;;;;0.58;46.47;99652.60;432516;1270;97373;-40
2022/03/13 23:07:41;;;;;;;91.10;36.90;;;;;;;0.52;46.86;99648.13;432508;1270;110544;-41
2022/03/13 23:17:49;;;;;;;90.50;34.00;;;;;;;0.40;47.40;99650.28;432670;1270;108328;-42
2022/03/13 23:38:03;;;;;;;93.30;36.90;;;;;;;0.17;48.46;99652.36;432686;1270;97901;-40
2022/03/13 23:48:09;;;;;;;78.90;34.80;;;;;;;0.01;48.74;99651.91;432630;1270;111234;-41
2022/03/13 23:58:17;;;;;;;105.70;44.00;;;;;;;-0.16;49.29;99657.43;432427;1270;107837;-41
